createdAt,value
2022-08-30T00:00:02.137Z,62.75
2022-08-30T00:02:34.130Z,62.63
2022-08-30T00:05:02.565Z,62.62
2022-08-30T00:07:30.963Z,62.50
2022-08-30T00:09:58.751Z,62.51
2022-08-30T00:12:27.122Z,62.70
2022-08-30T00:14:54.957Z,62.37
2022-08-30T00:17:22.736Z,62.57
2022-08-30T00:19:50.911Z,62.48
2022-08-30T00:22:18.742Z,62.29
2022-08-30T00:24:46.730Z,62.39
2022-08-30T00:27:14.944Z,62.55
2022-08-30T00:29:42.750Z,62.35
2022-08-30T00:32:11.506Z,62.61
2022-08-30T00:34:39.726Z,62.73
2022-08-30T00:37:07.941Z,62.84
2022-08-30T00:39:35.657Z,63.48
2022-08-30T00:42:04.138Z,63.06
2022-08-30T00:44:31.850Z,62.91
2022-08-30T00:46:59.671Z,62.47
2022-08-30T00:49:28.877Z,62.35
2022-08-30T00:51:57.236Z,62.37
2022-08-30T00:54:26.342Z,62.61
2022-08-30T00:56:54.643Z,62.42
2022-08-30T00:59:24.489Z,62.49
2022-08-30T01:01:52.404Z,62.18
2022-08-30T01:04:22.488Z,62.42
2022-08-30T01:06:50.320Z,62.35
2022-08-30T01:09:18.098Z,62.50
2022-08-30T01:11:49.758Z,61.89
2022-08-30T01:14:22.282Z,61.99
2022-08-30T01:16:55.799Z,61.80
2022-08-30T01:19:48.669Z,61.80
2022-08-30T01:22:52.089Z,61.41
2022-08-30T01:25:25.772Z,61.66
2022-08-30T01:27:56.815Z,61.62
2022-08-30T01:30:24.724Z,61.40
2022-08-30T01:32:58.491Z,61.21
2022-08-30T01:35:27.734Z,61.33
2022-08-30T01:37:55.980Z,60.96
2022-08-30T01:40:23.914Z,60.85
2022-08-30T01:42:51.969Z,60.86
2022-08-30T01:45:19.848Z,60.65
2022-08-30T01:47:47.514Z,60.63
2022-08-30T01:50:15.544Z,60.79
2022-08-30T01:52:43.456Z,60.89
2022-08-30T01:55:11.224Z,60.80
2022-08-30T01:57:39.631Z,60.96
2022-08-30T02:00:08.792Z,61.53
2022-08-30T02:02:39.758Z,60.97
2022-08-30T02:05:08.520Z,61.08
2022-08-30T02:07:36.284Z,60.87
2022-08-30T02:10:04.819Z,61.15
2022-08-30T02:12:32.905Z,61.16
2022-08-30T02:15:00.961Z,61.27
2022-08-30T02:17:28.718Z,61.51
2022-08-30T02:19:56.891Z,61.64
2022-08-30T02:22:24.720Z,61.51
2022-08-30T02:24:52.440Z,61.83
2022-08-30T02:27:20.495Z,62.25
2022-08-30T02:29:48.266Z,63.37
2022-08-30T02:32:15.982Z,63.77
2022-08-30T02:34:44.795Z,63.47
2022-08-30T02:37:12.681Z,63.04
2022-08-30T02:39:40.593Z,63.06
2022-08-30T02:42:08.782Z,62.92
2022-08-30T02:44:36.708Z,63.19
2022-08-30T02:47:04.712Z,62.85
2022-08-30T02:49:34.077Z,62.33
2022-08-30T02:52:04.392Z,62.53
2022-08-30T02:54:33.512Z,63.37
2022-08-30T02:57:05.274Z,63.06
2022-08-30T02:59:33.848Z,63.05
2022-08-30T03:02:01.531Z,63.66
2022-08-30T03:04:29.630Z,63.31
2022-08-30T03:06:57.872Z,63.78
2022-08-30T03:09:25.576Z,63.60
2022-08-30T03:11:53.672Z,63.42
2022-08-30T03:14:21.743Z,63.87
2022-08-30T03:16:49.399Z,63.57
2022-08-30T03:19:17.481Z,63.07
2022-08-30T03:21:45.573Z,63.83
2022-08-30T03:24:13.819Z,63.91
2022-08-30T03:26:45.676Z,63.41
2022-08-30T03:29:14.675Z,63.86
2022-08-30T03:31:53.676Z,64.24
2022-08-30T03:34:23.530Z,64.51
2022-08-30T03:36:52.947Z,64.46
2022-08-30T03:39:22.018Z,64.85
2022-08-30T03:41:53.925Z,64.04
2022-08-30T03:44:21.940Z,64.09
2022-08-30T03:46:50.177Z,64.38
2022-08-30T03:49:18.901Z,64.61
2022-08-30T03:51:47.561Z,64.93
2022-08-30T03:54:20.460Z,64.60
2022-08-30T03:56:48.706Z,64.90
2022-08-30T03:59:16.866Z,65.20
2022-08-30T04:01:46.003Z,65.56
2022-08-30T04:04:20.015Z,65.62
2022-08-30T04:06:49.796Z,65.44
2022-08-30T04:09:20.575Z,65.45
2022-08-30T04:11:48.548Z,65.93
2022-08-30T04:14:16.686Z,65.81
2022-08-30T04:16:45.171Z,65.51
2022-08-30T04:19:13.066Z,66.03
2022-08-30T04:21:42.832Z,65.84
2022-08-30T04:24:12.587Z,65.16
2022-08-30T04:26:40.336Z,65.50
2022-08-30T04:29:08.174Z,65.09
2022-08-30T04:31:36.354Z,65.40
2022-08-30T04:34:04.326Z,64.97
2022-08-30T04:36:32.463Z,64.77
2022-08-30T04:39:05.605Z,64.55
2022-08-30T04:41:33.787Z,64.21
2022-08-30T04:44:04.920Z,65.16
2022-08-30T04:46:37.161Z,64.45
2022-08-30T04:49:13.182Z,65.42
2022-08-30T04:51:41.424Z,65.20
2022-08-30T04:54:09.397Z,65.23
2022-08-30T04:56:37.602Z,65.32
2022-08-30T04:59:06.120Z,65.09
2022-08-30T05:01:45.103Z,64.94
2022-08-30T05:04:15.261Z,64.91
2022-08-30T05:06:43.223Z,63.79
2022-08-30T05:09:11.612Z,63.45
2022-08-30T05:11:39.888Z,62.80
2022-08-30T05:14:10.543Z,62.71
2022-08-30T05:16:39.688Z,62.34
2022-08-30T05:19:08.200Z,61.38
2022-08-30T05:21:36.280Z,61.50
2022-08-30T05:24:04.399Z,61.28
2022-08-30T05:26:34.352Z,60.65
2022-08-30T05:29:02.445Z,61.00
2022-08-30T05:31:36.397Z,61.18
2022-08-30T05:34:11.190Z,61.76
2022-08-30T05:36:40.195Z,62.64
2022-08-30T05:39:10.124Z,62.61
2022-08-30T05:41:38.145Z,61.38
2022-08-30T05:44:08.630Z,61.45
2022-08-30T05:46:38.011Z,61.56
2022-08-30T05:49:07.633Z,61.04
2022-08-30T05:51:42.877Z,60.85
2022-08-30T05:54:16.103Z,61.40
2022-08-30T05:56:46.016Z,60.72
2022-08-30T05:59:17.147Z,60.13
2022-08-30T06:01:46.643Z,59.53
2022-08-30T06:04:16.685Z,58.93
2022-08-30T06:06:48.323Z,59.92
2022-08-30T06:09:26.694Z,60.03
2022-08-30T06:11:56.343Z,58.79
2022-08-30T06:14:25.091Z,58.48
2022-08-30T06:16:53.873Z,58.31
2022-08-30T06:19:21.675Z,55.83
2022-08-30T06:21:51.960Z,55.26
2022-08-30T06:25:00.311Z,54.82
2022-08-30T06:27:28.959Z,54.83
2022-08-30T06:29:57.186Z,55.62
2022-08-30T06:32:25.583Z,54.47
2022-08-30T06:34:54.432Z,54.83
2022-08-30T06:37:29.527Z,52.64
2022-08-30T06:40:00.505Z,52.14
2022-08-30T06:42:32.471Z,51.91
2022-08-30T06:45:10.958Z,52.01
2022-08-30T06:47:41.235Z,53.04
2022-08-30T06:50:11.852Z,52.09
2022-08-30T06:52:42.645Z,51.55
2022-08-30T06:55:14.112Z,51.74
2022-08-30T06:57:42.938Z,50.83
2022-08-30T07:00:17.989Z,50.83
2022-08-30T07:02:46.340Z,50.58
2022-08-30T07:05:18.940Z,50.79
2022-08-30T07:07:56.005Z,50.50
2022-08-30T07:10:29.992Z,51.06
2022-08-30T07:12:58.352Z,51.01
2022-08-30T07:15:29.480Z,49.41
2022-08-30T07:18:23.163Z,49.60
2022-08-30T07:20:52.039Z,49.45
2022-08-30T07:23:21.311Z,49.01
2022-08-30T07:25:54.068Z,49.46
2022-08-30T07:28:27.452Z,49.34
2022-08-30T07:30:56.037Z,48.73
2022-08-30T07:33:28.888Z,49.11
2022-08-30T07:36:05.957Z,48.18
2022-08-30T07:38:34.799Z,46.75
2022-08-30T07:41:02.872Z,47.16
2022-08-30T07:43:33.332Z,47.19
2022-08-30T07:46:07.239Z,46.50
2022-08-30T07:48:35.847Z,46.59
2022-08-30T07:51:06.941Z,46.52
2022-08-30T07:53:34.973Z,44.78
2022-08-30T07:56:09.897Z,45.42
2022-08-30T07:58:40.455Z,46.54
2022-08-30T08:01:14.766Z,45.75
2022-08-30T08:03:45.030Z,45.18
2022-08-30T08:06:14.957Z,46.69
2022-08-30T08:08:45.712Z,46.38
2022-08-30T08:11:19.745Z,44.99
2022-08-30T08:13:53.676Z,46.23
2022-08-30T08:16:24.481Z,46.62
2022-08-30T08:18:57.877Z,45.59
2022-08-30T08:21:29.022Z,43.78
2022-08-30T08:23:56.914Z,43.47
2022-08-30T08:26:27.243Z,43.81
2022-08-30T08:28:54.921Z,42.06
2022-08-30T08:31:27.327Z,41.99
2022-08-30T08:34:05.890Z,42.82
2022-08-30T08:36:35.992Z,42.61
2022-08-30T08:39:06.340Z,42.13
2022-08-30T08:41:37.986Z,42.08
2022-08-30T08:47:23.757Z,42.96
2022-08-30T08:49:53.520Z,42.75
2022-08-30T08:52:44.448Z,43.22
2022-08-30T08:55:18.560Z,43.56
2022-08-30T08:57:48.007Z,42.25
2022-08-30T09:00:18.776Z,43.19
2022-08-30T09:02:55.781Z,43.22
2022-08-30T09:05:34.827Z,42.42
2022-08-30T09:08:10.121Z,43.01
2022-08-30T09:10:50.415Z,42.52
2022-08-30T09:13:23.012Z,43.17
2022-08-30T09:15:55.177Z,42.69
2022-08-30T09:18:46.926Z,43.00
2022-08-30T09:21:25.549Z,41.07
2022-08-30T09:23:59.215Z,41.75
2022-08-30T09:26:34.989Z,42.40
2022-08-30T09:29:05.856Z,41.98
2022-08-30T09:32:25.166Z,41.97
2022-08-30T09:34:45.157Z,41.93
2022-08-30T09:37:29.298Z,40.67
2022-08-30T09:39:57.582Z,44.76
2022-08-30T09:42:28.970Z,43.25
2022-08-30T09:45:10.887Z,42.59
2022-08-30T09:47:41.734Z,41.22
2022-08-30T09:50:18.445Z,40.77
2022-08-30T09:52:57.768Z,41.13
2022-08-30T09:55:38.251Z,42.99
2022-08-30T09:58:30.044Z,42.07
2022-08-30T10:01:20.892Z,42.00
2022-08-30T10:04:05.789Z,41.29
2022-08-30T10:06:52.063Z,40.90
2022-08-30T10:09:46.518Z,41.85
2022-08-30T10:12:29.555Z,41.95
2022-08-30T10:15:06.777Z,41.80
2022-08-30T10:17:56.711Z,41.72
2022-08-30T10:20:55.975Z,42.92
2022-08-30T10:23:31.003Z,41.31
2022-08-30T10:26:30.153Z,41.18
2022-08-30T10:29:01.439Z,43.98
2022-08-30T10:31:36.827Z,40.85
2022-08-30T10:34:41.168Z,43.46
2022-08-30T10:37:35.316Z,43.19
2022-08-30T10:40:31.315Z,42.44
2022-08-30T10:43:10.100Z,44.84
2022-08-30T10:45:41.590Z,44.07
2022-08-30T10:48:40.465Z,44.40
2022-08-30T10:51:25.842Z,40.40
2022-08-30T10:54:08.718Z,40.77
2022-08-30T10:56:41.702Z,41.79
2022-08-30T10:59:14.067Z,40.70
2022-08-30T11:02:09.904Z,40.96
2022-08-30T11:05:16.289Z,43.43
2022-08-30T11:08:07.523Z,42.49
2022-08-30T11:10:49.921Z,40.47
2022-08-30T11:13:21.348Z,39.80
2022-08-30T11:16:16.144Z,41.10
2022-08-30T11:18:53.220Z,39.84
2022-08-30T11:21:40.299Z,42.02
2022-08-30T11:24:25.927Z,40.57
2022-08-30T11:27:00.974Z,39.24
2022-08-30T11:29:45.562Z,39.91
2022-08-30T11:32:35.141Z,39.79
2022-08-30T11:35:06.980Z,39.68
2022-08-30T11:37:44.691Z,38.62
2022-08-30T11:40:23.237Z,38.51
2022-08-30T11:42:55.203Z,39.83
2022-08-30T11:45:25.046Z,38.53
2022-08-30T11:47:59.931Z,37.20
2022-08-30T11:50:41.986Z,37.62
2022-08-30T11:53:38.308Z,37.64
2022-08-30T11:56:16.820Z,36.64
2022-08-30T11:59:25.652Z,36.25
2022-08-30T12:01:54.137Z,35.92
2022-08-30T12:04:37.645Z,36.69
2022-08-30T12:07:09.868Z,35.45
2022-08-30T12:09:38.380Z,35.52
2022-08-30T12:12:26.746Z,34.32
2022-08-30T12:14:58.516Z,34.04
2022-08-30T12:18:15.211Z,33.75
2022-08-30T12:20:50.714Z,34.10
2022-08-30T12:24:13.120Z,34.04
2022-08-30T12:26:48.458Z,33.43
2022-08-30T12:29:27.925Z,34.09
2022-08-30T12:32:05.539Z,32.16
2022-08-30T12:34:38.279Z,34.11
2022-08-30T12:37:21.465Z,33.87
2022-08-30T12:40:08.739Z,33.89
2022-08-30T12:43:15.725Z,34.16
2022-08-30T12:45:50.907Z,34.91
2022-08-30T12:48:21.038Z,37.02
2022-08-30T12:50:54.660Z,35.98
2022-08-30T12:53:34.906Z,34.05
2022-08-30T12:56:13.474Z,34.50
2022-08-30T12:58:51.363Z,33.70
2022-08-30T13:01:19.728Z,34.07
2022-08-30T13:04:16.867Z,34.61
2022-08-30T13:07:01.294Z,35.50
2022-08-30T13:09:34.161Z,35.68
2022-08-30T13:12:10.137Z,35.67
2022-08-30T13:14:38.045Z,35.60
2022-08-30T13:17:30.294Z,37.22
2022-08-30T13:20:07.514Z,35.17
2022-08-30T13:22:40.018Z,35.73
2022-08-30T13:25:09.519Z,34.16
2022-08-30T13:27:38.577Z,35.21
2022-08-30T13:30:14.435Z,34.94
2022-08-30T13:32:42.669Z,33.52
2022-08-30T13:35:11.086Z,33.68
2022-08-30T13:37:50.026Z,32.79
2022-08-30T13:40:25.386Z,30.81
2022-08-30T13:42:55.767Z,33.20
2022-08-30T13:45:42.964Z,30.98
2022-08-30T13:48:14.835Z,30.75
2022-08-30T13:50:50.268Z,31.49
2022-08-30T13:56:21.378Z,30.64
2022-08-30T13:58:49.888Z,31.02
2022-08-30T14:01:18.055Z,29.01
2022-08-30T14:06:36.711Z,30.45
2022-08-30T14:09:08.342Z,29.55
2022-08-30T14:11:43.904Z,30.24
2022-08-30T14:14:28.528Z,31.17
2022-08-30T14:17:08.117Z,31.49
2022-08-30T14:19:40.168Z,33.40
2022-08-30T14:22:10.406Z,33.75
2022-08-30T14:24:38.638Z,34.62
2022-08-30T14:27:09.086Z,33.36
2022-08-30T14:29:44.480Z,32.33
2022-08-30T14:32:17.045Z,33.27
2022-08-30T14:34:52.332Z,33.44
2022-08-30T14:37:25.852Z,32.06
2022-08-30T14:39:56.385Z,31.85
2022-08-30T14:42:30.365Z,31.43
2022-08-30T14:45:00.758Z,30.82
2022-08-30T14:47:30.465Z,30.58
2022-08-30T14:50:01.507Z,30.85
2022-08-30T14:52:30.145Z,31.25
2022-08-30T14:55:05.175Z,31.63
2022-08-30T14:57:39.634Z,32.10
2022-08-30T15:00:12.810Z,32.21
2022-08-30T15:02:41.009Z,33.30
2022-08-30T15:05:08.966Z,32.84
2022-08-30T15:07:36.713Z,32.78
2022-08-30T15:10:13.044Z,33.23
2022-08-30T15:12:42.416Z,34.12
2022-08-30T15:15:11.623Z,34.49
2022-08-30T15:17:39.765Z,34.77
2022-08-30T15:20:12.382Z,34.51
2022-08-30T15:22:41.283Z,35.40
2022-08-30T15:25:14.170Z,34.57
2022-08-30T15:27:44.526Z,35.98
2022-08-30T15:30:17.487Z,36.72
2022-08-30T15:32:48.238Z,36.92
2022-08-30T15:35:16.593Z,36.49
2022-08-30T15:37:44.300Z,36.78
2022-08-30T15:40:12.508Z,36.77
2022-08-30T15:42:40.642Z,36.65
2022-08-30T15:45:10.247Z,36.41
2022-08-30T15:47:39.261Z,35.98
2022-08-30T15:50:08.866Z,36.54
2022-08-30T15:52:39.127Z,37.10
2022-08-30T15:55:07.892Z,36.89
2022-08-30T15:57:35.863Z,36.84
2022-08-30T16:00:08.590Z,37.23
2022-08-30T16:02:37.996Z,37.67
2022-08-30T16:05:07.433Z,37.76
2022-08-30T16:07:39.957Z,37.51
2022-08-30T16:10:09.933Z,37.30
2022-08-30T16:12:40.440Z,37.97
2022-08-30T16:15:09.164Z,37.60
2022-08-30T16:17:37.205Z,38.16
2022-08-30T16:20:08.315Z,37.39
2022-08-30T16:22:36.684Z,37.55
2022-08-30T16:25:05.639Z,37.68
2022-08-30T16:27:35.036Z,37.56
2022-08-30T16:30:06.098Z,37.26
2022-08-30T16:32:34.236Z,37.29
2022-08-30T16:35:02.433Z,37.62
2022-08-30T16:37:31.225Z,36.71
2022-08-30T16:40:01.597Z,37.19
2022-08-30T16:42:34.033Z,37.11
2022-08-30T16:45:02.584Z,37.05
2022-08-30T16:47:41.007Z,37.15
2022-08-30T16:50:10.906Z,37.27
2022-08-30T16:52:42.317Z,36.28
2022-08-30T16:55:15.071Z,36.07
2022-08-30T16:57:45.739Z,36.46
2022-08-30T17:00:15.015Z,36.47
2022-08-30T17:02:53.651Z,36.85
2022-08-30T17:05:23.212Z,36.52
2022-08-30T17:07:51.014Z,37.10
2022-08-30T17:10:23.475Z,36.47
2022-08-30T17:12:59.511Z,36.35
2022-08-30T17:15:27.855Z,36.57
2022-08-30T17:17:56.624Z,37.12
2022-08-30T17:20:26.905Z,38.08
2022-08-30T17:22:57.202Z,38.15
2022-08-30T17:25:28.745Z,38.51
2022-08-30T17:27:58.411Z,39.73
2022-08-30T17:30:26.333Z,39.19
2022-08-30T17:32:54.239Z,40.06
2022-08-30T17:35:23.321Z,40.45
2022-08-30T17:37:52.147Z,40.92
2022-08-30T17:40:32.701Z,40.85
2022-08-30T17:43:01.253Z,41.73
2022-08-30T17:45:29.747Z,41.55
2022-08-30T17:48:01.649Z,43.40
2022-08-30T17:50:29.429Z,44.01
2022-08-30T17:53:01.683Z,43.54
2022-08-30T17:55:30.662Z,43.79
2022-08-30T17:58:00.521Z,44.28
2022-08-30T18:00:32.734Z,44.41
2022-08-30T18:03:01.093Z,43.72
2022-08-30T18:05:29.038Z,44.05
2022-08-30T18:07:56.689Z,44.53
2022-08-30T18:10:34.368Z,45.32
2022-08-30T18:13:02.481Z,44.99
2022-08-30T18:15:31.525Z,45.23
2022-08-30T18:18:00.569Z,45.64
2022-08-30T18:20:28.448Z,46.31
2022-08-30T18:22:59.708Z,46.94
2022-08-30T18:25:36.002Z,46.65
2022-08-30T18:28:07.917Z,47.81
2022-08-30T18:30:39.900Z,48.40
2022-08-30T18:33:13.565Z,48.35
2022-08-30T18:35:47.485Z,47.88
2022-08-30T18:38:18.259Z,47.46
2022-08-30T18:40:53.376Z,46.52
2022-08-30T18:43:30.863Z,46.37
2022-08-30T18:46:09.348Z,47.03
2022-08-30T18:48:38.702Z,46.60
2022-08-30T18:51:17.889Z,45.87
2022-08-30T18:53:47.355Z,45.72
2022-08-30T18:56:17.086Z,45.82
2022-08-30T18:58:46.434Z,45.47
2022-08-30T19:01:20.699Z,45.71
2022-08-30T19:03:53.113Z,45.86
2022-08-30T19:06:21.693Z,46.43
2022-08-30T19:08:49.639Z,47.59
2022-08-30T19:11:26.854Z,48.02
2022-08-30T19:14:10.038Z,47.58
2022-08-30T19:16:38.422Z,48.31
2022-08-30T19:19:13.913Z,48.44
2022-08-30T19:21:42.014Z,48.74
2022-08-30T19:24:12.353Z,50.04
2022-08-30T19:26:46.510Z,49.21
2022-08-30T19:29:15.579Z,49.35
2022-08-30T19:31:45.023Z,49.77
2022-08-30T19:34:14.041Z,49.63
2022-08-30T19:36:45.364Z,50.23
2022-08-30T19:39:14.484Z,49.51
2022-08-30T19:41:43.539Z,49.57
2022-08-30T19:44:11.634Z,50.66
2022-08-30T19:46:42.271Z,50.17
2022-08-30T19:49:11.493Z,49.23
2022-08-30T19:51:46.782Z,49.37
2022-08-30T19:54:15.447Z,49.47
2022-08-30T19:56:45.538Z,48.33
2022-08-30T19:59:16.976Z,49.36
2022-08-30T20:01:49.877Z,49.00
2022-08-30T20:04:18.386Z,49.44
2022-08-30T20:06:46.381Z,49.45
2022-08-30T20:09:14.544Z,48.87
2022-08-30T20:11:52.550Z,50.78
2022-08-30T20:14:23.330Z,49.77
2022-08-30T20:16:53.511Z,49.52
2022-08-30T20:19:32.781Z,49.90
2022-08-30T20:22:08.456Z,50.31
2022-08-30T20:24:39.456Z,50.85
2022-08-30T20:27:15.897Z,50.30
2022-08-30T20:29:45.237Z,50.09
2022-08-30T20:32:13.554Z,50.50
2022-08-30T20:34:44.694Z,50.70
2022-08-30T20:37:16.689Z,51.02
2022-08-30T20:39:44.458Z,51.04
2022-08-30T20:42:13.270Z,50.94
2022-08-30T20:44:41.397Z,50.89
2022-08-30T20:47:14.952Z,50.14
2022-08-30T20:49:44.541Z,50.27
2022-08-30T20:52:22.851Z,50.55
2022-08-30T20:54:54.564Z,50.50
2022-08-30T20:57:28.019Z,50.94
2022-08-30T20:59:59.065Z,51.43
2022-08-30T21:02:27.425Z,51.47
2022-08-30T21:04:55.479Z,51.40
2022-08-30T21:07:24.214Z,51.63
2022-08-30T21:09:54.046Z,51.72
2022-08-30T21:12:28.436Z,51.74
2022-08-30T21:14:58.464Z,51.82
2022-08-30T21:17:27.402Z,52.27
2022-08-30T21:19:55.755Z,52.47
2022-08-30T21:22:30.126Z,52.34
2022-08-30T21:24:58.061Z,51.92
2022-08-30T21:27:26.100Z,52.18
2022-08-30T21:29:54.120Z,51.97
2022-08-30T21:32:24.539Z,51.99
2022-08-30T21:35:11.367Z,52.27
2022-08-30T21:37:45.808Z,51.40
2022-08-30T21:40:17.310Z,51.61
2022-08-30T21:42:47.902Z,52.05
2022-08-30T21:45:16.122Z,51.80
2022-08-30T21:47:45.118Z,52.24
2022-08-30T21:50:13.741Z,51.45
2022-08-30T21:52:44.829Z,51.58
2022-08-30T21:55:14.820Z,52.44
2022-08-30T21:57:42.538Z,53.16
2022-08-30T22:00:11.012Z,52.65
2022-08-30T22:02:41.931Z,52.68
2022-08-30T22:05:09.573Z,52.70
2022-08-30T22:07:41.798Z,52.73
2022-08-30T22:10:17.852Z,53.30
2022-08-30T22:12:48.586Z,53.11
2022-08-30T22:15:16.383Z,53.43
2022-08-30T22:17:50.012Z,53.53
2022-08-30T22:20:20.141Z,53.29
2022-08-30T22:22:48.245Z,52.93
2022-08-30T22:25:15.948Z,53.23
2022-08-30T22:27:46.562Z,53.23
2022-08-30T22:30:16.102Z,53.09
2022-08-30T22:32:43.910Z,53.79
2022-08-30T22:35:13.974Z,53.96
2022-08-30T22:37:42.812Z,54.17
2022-08-30T22:40:15.655Z,54.32
2022-08-30T22:42:48.151Z,54.57
2022-08-30T22:45:19.031Z,54.09
2022-08-30T22:47:46.625Z,53.98
2022-08-30T22:50:14.325Z,53.87
2022-08-30T22:52:47.467Z,54.35
2022-08-30T22:55:15.122Z,54.21
2022-08-30T22:57:42.764Z,55.02
2022-08-30T23:00:16.293Z,54.70
2022-08-30T23:02:49.853Z,54.47
2022-08-30T23:05:22.586Z,54.55
2022-08-30T23:07:51.073Z,55.93
2022-08-30T23:10:19.404Z,55.59
2022-08-30T23:12:47.495Z,54.82
2022-08-30T23:15:16.243Z,54.64
2022-08-30T23:17:43.967Z,55.52
2022-08-30T23:20:15.042Z,55.66
2022-08-30T23:22:42.511Z,56.16
2022-08-30T23:25:31.963Z,55.73
2022-08-30T23:28:23.290Z,55.20
2022-08-30T23:31:09.746Z,55.86
2022-08-30T23:34:00.099Z,56.05
2022-08-30T23:36:46.506Z,56.76
2022-08-30T23:39:33.759Z,56.57
2022-08-30T23:42:23.027Z,56.37
2022-08-30T23:45:09.371Z,56.02
2022-08-30T23:47:55.791Z,56.17
2022-08-30T23:50:41.922Z,56.21
2022-08-30T23:53:28.625Z,56.46
2022-08-30T23:56:14.781Z,57.20
2022-08-30T23:59:01.254Z,56.37
